createdAt,value
2022-12-18T00:01:07.325Z,8.77
2022-12-18T00:03:34.850Z,9.23
2022-12-18T00:06:01.753Z,13.93
2022-12-18T00:08:28.847Z,8.05
2022-12-18T00:10:55.579Z,8.40
2022-12-18T00:13:28.511Z,8.07
2022-12-18T00:15:56.596Z,8.52
2022-12-18T00:18:23.554Z,8.75
2022-12-18T00:20:50.223Z,7.78
2022-12-18T00:23:16.841Z,8.35
2022-12-18T00:25:43.473Z,9.95
2022-12-18T00:28:10.124Z,8.65
2022-12-18T00:30:36.798Z,9.85
2022-12-18T00:33:03.519Z,8.13
2022-12-18T00:35:30.185Z,8.02
2022-12-18T00:37:56.820Z,10.05
2022-12-18T00:40:23.473Z,8.40
2022-12-18T00:42:59.267Z,8.13
2022-12-18T00:45:30.918Z,8.57
2022-12-18T00:47:58.017Z,7.88
2022-12-18T00:50:25.993Z,10.50
2022-12-18T00:52:53.068Z,7.95
2022-12-18T00:55:19.724Z,10.18
2022-12-18T00:57:46.371Z,8.43
2022-12-18T01:00:15.326Z,7.80
2022-12-18T01:02:42.481Z,7.93
2022-12-18T01:05:11.027Z,9.57
2022-12-18T01:07:38.225Z,7.50
2022-12-18T01:10:06.418Z,8.05
2022-12-18T01:12:33.689Z,10.32
2022-12-18T01:15:00.412Z,9.82
2022-12-18T01:17:27.112Z,8.02
2022-12-18T01:19:53.794Z,8.38
2022-12-18T01:22:20.442Z,9.27
2022-12-18T01:24:47.115Z,9.00
2022-12-18T01:27:13.805Z,9.30
2022-12-18T01:29:40.483Z,8.25
2022-12-18T01:32:07.433Z,8.18
2022-12-18T01:34:35.431Z,11.18
2022-12-18T01:37:04.591Z,7.90
2022-12-18T01:39:32.897Z,10.30
2022-12-18T01:42:03.824Z,9.90
2022-12-18T01:44:58.490Z,7.85
2022-12-18T01:47:44.753Z,8.70
2022-12-18T01:50:19.703Z,8.43
2022-12-18T01:52:50.122Z,9.15
2022-12-18T01:55:20.791Z,10.45
2022-12-18T01:57:48.230Z,10.48
2022-12-18T02:00:18.533Z,7.72
2022-12-18T02:02:47.334Z,8.55
2022-12-18T02:05:17.929Z,8.20
2022-12-18T02:08:04.799Z,7.72
2022-12-18T02:10:45.513Z,9.30
2022-12-18T02:13:49.701Z,10.30
2022-12-18T02:17:05.542Z,8.63
2022-12-18T02:19:49.530Z,9.95
2022-12-18T02:22:28.636Z,8.57
2022-12-18T02:24:59.514Z,8.02
2022-12-18T02:27:26.344Z,8.65
2022-12-18T02:29:58.641Z,7.10
2022-12-18T02:32:28.385Z,7.55
2022-12-18T02:37:22.943Z,8.30
2022-12-18T02:39:50.995Z,7.88
2022-12-18T02:42:18.198Z,11.88
2022-12-18T02:44:46.935Z,9.63
2022-12-18T02:47:15.068Z,8.75
2022-12-18T02:49:47.594Z,7.75
2022-12-18T02:52:17.202Z,9.18
2022-12-18T02:55:25.451Z,9.18
2022-12-18T02:57:59.463Z,8.48
2022-12-18T03:00:41.030Z,7.93
2022-12-18T03:06:01.388Z,7.70
2022-12-18T03:08:35.260Z,10.40
2022-12-18T03:11:08.625Z,8.30
2022-12-18T03:13:53.763Z,7.72
2022-12-18T03:16:29.393Z,8.25
2022-12-18T03:18:58.413Z,9.55
2022-12-18T03:21:30.214Z,8.98
2022-12-18T03:23:57.089Z,9.25
2022-12-18T03:26:26.503Z,9.32
2022-12-18T03:28:57.829Z,7.85
2022-12-18T03:31:25.075Z,10.30
2022-12-18T03:33:55.929Z,9.65
2022-12-18T03:36:23.022Z,9.65
2022-12-18T03:38:49.743Z,8.85
2022-12-18T03:41:34.410Z,7.88
2022-12-18T03:44:11.876Z,8.77
2022-12-18T03:46:57.376Z,8.30
2022-12-18T03:49:40.345Z,8.05
2022-12-18T03:52:11.263Z,10.38
2022-12-18T03:54:38.309Z,8.07
2022-12-18T03:57:08.652Z,7.85
2022-12-18T03:59:36.513Z,8.32
2022-12-18T04:02:04.647Z,8.88
2022-12-18T04:04:32.280Z,7.57
2022-12-18T04:06:59.580Z,8.70
2022-12-18T04:09:27.064Z,11.10
2022-12-18T04:11:53.966Z,8.75
2022-12-18T04:14:20.811Z,9.45
2022-12-18T04:16:47.504Z,9.30
2022-12-18T04:19:14.143Z,8.27
2022-12-18T04:21:41.102Z,12.45
2022-12-18T04:24:08.018Z,13.70
2022-12-18T04:26:34.682Z,10.70
2022-12-18T04:29:01.390Z,11.20
2022-12-18T04:31:28.633Z,16.02
2022-12-18T04:33:55.324Z,11.02
2022-12-18T04:36:22.290Z,17.10
2022-12-18T04:38:48.900Z,10.38
2022-12-18T04:41:15.599Z,15.25
2022-12-18T04:43:42.434Z,12.73
2022-12-18T04:46:09.911Z,11.50
2022-12-18T04:48:37.142Z,11.90
2022-12-18T04:51:05.239Z,12.57
2022-12-18T04:53:32.027Z,12.48
2022-12-18T04:56:09.876Z,16.50
2022-12-18T04:58:37.642Z,12.93
2022-12-18T05:01:04.588Z,15.48
2022-12-18T05:03:32.014Z,14.85
2022-12-18T05:05:58.734Z,15.05
2022-12-18T05:08:25.549Z,15.80
2022-12-18T05:11:04.014Z,13.82
2022-12-18T05:13:31.036Z,13.95
2022-12-18T05:15:57.934Z,12.90
2022-12-18T05:18:25.781Z,15.23
2022-12-18T05:20:53.447Z,16.83
2022-12-18T05:23:20.954Z,26.13
2022-12-18T05:25:52.299Z,16.00
2022-12-18T05:28:19.169Z,20.50
2022-12-18T05:30:50.846Z,23.38
2022-12-18T05:33:18.480Z,17.73
2022-12-18T05:35:45.506Z,16.98
2022-12-18T05:38:12.320Z,18.60
2022-12-18T05:40:43.335Z,17.20
2022-12-18T05:43:10.354Z,17.35
2022-12-18T05:45:40.882Z,19.70
2022-12-18T05:48:08.409Z,20.13
2022-12-18T05:50:39.339Z,18.17
2022-12-18T05:53:06.970Z,20.38
2022-12-18T05:55:37.568Z,31.80
2022-12-18T05:58:05.415Z,26.83
2022-12-18T06:00:33.196Z,20.05
2022-12-18T06:03:00.462Z,23.00
2022-12-18T06:05:27.400Z,20.25
2022-12-18T06:07:54.193Z,27.60
2022-12-18T06:10:20.868Z,28.00
2022-12-18T06:12:48.193Z,22.02
2022-12-18T06:15:14.895Z,25.27
2022-12-18T06:17:42.840Z,33.15
2022-12-18T06:20:10.134Z,26.00
2022-12-18T06:22:36.866Z,22.77
2022-12-18T06:25:03.925Z,29.58
2022-12-18T06:27:30.580Z,33.28
2022-12-18T06:29:57.281Z,31.75
2022-12-18T06:32:24.095Z,29.00
2022-12-18T06:34:50.815Z,26.48
2022-12-18T06:37:17.586Z,22.83
2022-12-18T06:39:44.310Z,26.33
2022-12-18T06:42:10.954Z,25.40
2022-12-18T06:44:37.647Z,27.30
2022-12-18T06:47:04.351Z,25.00
2022-12-18T06:49:31.054Z,24.90
2022-12-18T06:51:57.723Z,27.73
2022-12-18T06:54:24.354Z,37.83
2022-12-18T06:56:51.687Z,30.45
2022-12-18T06:59:18.387Z,27.67
2022-12-18T07:01:45.260Z,30.33
2022-12-18T07:04:12.023Z,27.45
2022-12-18T07:06:38.710Z,31.27
2022-12-18T07:09:05.499Z,28.60
2022-12-18T07:11:33.907Z,31.48
2022-12-18T07:14:00.597Z,28.55
2022-12-18T07:16:29.383Z,32.55
2022-12-18T07:18:56.934Z,30.83
2022-12-18T07:21:24.860Z,33.60
2022-12-18T07:23:51.761Z,33.10
2022-12-18T07:26:20.286Z,30.42
2022-12-18T07:28:47.442Z,34.40
2022-12-18T07:31:21.530Z,33.80
2022-12-18T07:33:49.241Z,31.08
2022-12-18T07:36:15.902Z,32.63
2022-12-18T07:38:42.614Z,31.70
2022-12-18T07:41:12.013Z,43.33
2022-12-18T07:46:06.525Z,38.78
2022-12-18T07:48:33.369Z,34.40
2022-12-18T07:51:05.191Z,39.35
2022-12-18T07:53:32.711Z,35.00
2022-12-18T07:56:25.914Z,33.45
2022-12-18T07:58:48.670Z,38.20
2022-12-18T08:01:15.899Z,32.47
2022-12-18T08:03:43.060Z,40.42
2022-12-18T08:06:11.083Z,59.45
2022-12-18T08:08:38.154Z,40.85
2022-12-18T08:11:05.051Z,49.38
2022-12-18T08:13:31.786Z,35.72
2022-12-18T08:16:06.321Z,40.25
2022-12-18T08:18:37.026Z,45.00
2022-12-18T08:21:11.566Z,40.78
2022-12-18T08:23:42.706Z,46.08
2022-12-18T08:26:11.096Z,43.70
2022-12-18T08:28:37.824Z,37.05
2022-12-18T08:31:05.085Z,44.78
2022-12-18T08:33:32.096Z,40.58
2022-12-18T08:36:02.714Z,38.85
2022-12-18T08:38:29.804Z,37.15
2022-12-18T08:41:02.370Z,34.72
2022-12-18T08:43:47.911Z,35.78
2022-12-18T08:46:15.476Z,34.03
2022-12-18T08:48:42.284Z,36.22
2022-12-18T08:51:10.701Z,38.60
2022-12-18T08:53:37.901Z,43.70
2022-12-18T08:56:05.912Z,36.63
2022-12-18T08:58:32.541Z,34.00
2022-12-18T09:01:07.023Z,43.25
2022-12-18T09:03:34.092Z,39.00
2022-12-18T09:06:00.823Z,36.33
2022-12-18T09:08:27.898Z,38.35
2022-12-18T09:10:54.559Z,41.60
2022-12-18T09:13:21.443Z,36.28
2022-12-18T09:15:55.319Z,46.05
2022-12-18T09:18:23.772Z,39.28
2022-12-18T09:20:52.860Z,38.58
2022-12-18T09:23:19.752Z,46.00
2022-12-18T09:25:46.471Z,46.78
2022-12-18T09:28:17.384Z,41.03
2022-12-18T09:30:48.940Z,35.80
2022-12-18T09:33:16.766Z,40.35
2022-12-18T09:35:45.583Z,41.55
2022-12-18T09:38:19.996Z,39.35
2022-12-18T09:40:49.855Z,39.10
2022-12-18T09:43:23.640Z,38.33
2022-12-18T09:45:58.259Z,38.33
2022-12-18T09:48:29.364Z,57.05
2022-12-18T09:51:02.169Z,43.80
2022-12-18T09:53:32.495Z,42.20
2022-12-18T09:56:01.627Z,45.95
2022-12-18T09:58:37.419Z,38.60
2022-12-18T10:01:12.154Z,46.05
2022-12-18T10:03:38.886Z,42.13
2022-12-18T10:06:14.841Z,41.20
2022-12-18T10:09:04.028Z,43.75
2022-12-18T10:11:42.107Z,40.80
2022-12-18T10:14:29.394Z,41.92
2022-12-18T10:17:33.670Z,40.28
2022-12-18T10:20:10.079Z,37.50
2022-12-18T10:22:58.325Z,35.70
2022-12-18T10:26:15.647Z,36.92
2022-12-18T10:28:44.722Z,36.85
2022-12-18T10:31:18.553Z,41.45
2022-12-18T10:33:45.440Z,41.08
2022-12-18T10:36:12.472Z,45.17
2022-12-18T10:38:39.992Z,34.38
2022-12-18T10:41:29.335Z,37.42
2022-12-18T10:44:31.500Z,34.05
2022-12-18T10:47:10.123Z,38.65
2022-12-18T10:49:40.888Z,37.50
2022-12-18T10:54:49.529Z,40.45
2022-12-18T10:57:39.709Z,34.78
2022-12-18T11:00:31.428Z,36.63
2022-12-18T11:02:58.602Z,43.35
2022-12-18T11:05:32.980Z,40.60
2022-12-18T11:08:01.326Z,50.45
2022-12-18T11:10:36.868Z,44.53
2022-12-18T11:13:17.577Z,39.03
2022-12-18T11:15:44.725Z,39.38
2022-12-18T11:18:23.467Z,41.30
2022-12-18T11:21:00.912Z,37.50
2022-12-18T11:23:28.208Z,53.65
2022-12-18T11:25:57.864Z,44.22
2022-12-18T11:28:36.864Z,45.83
2022-12-18T11:31:12.739Z,40.25
2022-12-18T11:33:53.122Z,44.33
2022-12-18T11:36:32.117Z,38.55
2022-12-18T11:39:01.421Z,43.22
2022-12-18T11:44:33.722Z,48.83
2022-12-18T11:49:56.850Z,47.85
2022-12-18T11:52:32.953Z,51.35
2022-12-18T11:55:03.133Z,44.35
2022-12-18T11:57:55.875Z,43.03
2022-12-18T12:00:23.828Z,43.20
2022-12-18T12:02:59.429Z,42.95
2022-12-18T12:05:44.240Z,48.75
2022-12-18T12:08:24.258Z,40.00
2022-12-18T12:11:05.923Z,34.60
2022-12-18T12:13:59.570Z,40.38
2022-12-18T12:16:47.539Z,34.63
2022-12-18T12:19:28.953Z,33.22
2022-12-18T12:22:06.175Z,32.95
2022-12-18T12:24:51.120Z,28.60
2022-12-18T12:27:38.851Z,29.15
2022-12-18T12:32:45.299Z,28.73
2022-12-18T12:35:17.752Z,29.77
2022-12-18T12:38:03.129Z,24.00
2022-12-18T12:43:37.089Z,22.75
2022-12-18T12:46:12.167Z,24.40
2022-12-18T12:48:48.924Z,24.80
2022-12-18T12:51:22.126Z,19.05
2022-12-18T12:53:50.037Z,17.65
2022-12-18T12:56:19.593Z,19.88
2022-12-18T12:58:47.274Z,19.38
2022-12-18T13:01:27.183Z,19.85
2022-12-18T13:03:58.788Z,17.65
2022-12-18T13:06:49.502Z,21.95
2022-12-18T13:09:16.583Z,21.80
2022-12-18T13:12:04.653Z,18.73
2022-12-18T13:14:39.705Z,14.55
2022-12-18T13:17:22.230Z,15.25
2022-12-18T13:19:53.315Z,18.08
2022-12-18T13:22:31.503Z,18.45
2022-12-18T13:24:58.152Z,16.92
2022-12-18T13:27:44.219Z,17.67
2022-12-18T13:30:33.084Z,30.10
2022-12-18T13:33:14.815Z,17.08
2022-12-18T13:35:53.976Z,28.05
2022-12-18T13:38:32.844Z,29.85
2022-12-18T13:41:24.321Z,21.65
2022-12-18T13:43:53.050Z,23.65
2022-12-18T13:46:25.691Z,25.02
2022-12-18T13:49:06.220Z,18.25
2022-12-18T13:51:35.049Z,19.05
2022-12-18T13:54:04.095Z,17.30
2022-12-18T13:56:33.200Z,16.27
2022-12-18T13:59:11.820Z,17.05
2022-12-18T14:01:56.347Z,18.40
2022-12-18T14:04:30.368Z,22.60
2022-12-18T14:07:04.963Z,19.98
2022-12-18T14:09:36.227Z,18.30
2022-12-18T14:12:22.561Z,26.10
2022-12-18T14:14:51.784Z,18.65
2022-12-18T14:17:21.760Z,19.90
2022-12-18T14:19:52.136Z,18.27
2022-12-18T14:22:30.296Z,18.77
2022-12-18T14:25:29.602Z,27.70
2022-12-18T14:28:08.736Z,19.52
2022-12-18T14:30:46.389Z,25.38
2022-12-18T14:33:19.728Z,22.67
2022-12-18T14:35:57.470Z,30.52
2022-12-18T14:38:34.484Z,26.83
2022-12-18T14:41:06.612Z,20.48
2022-12-18T14:43:35.076Z,17.88
2022-12-18T14:46:03.198Z,18.17
2022-12-18T14:48:38.820Z,54.63
2022-12-18T14:53:50.703Z,23.95
2022-12-18T14:56:34.683Z,25.73
2022-12-18T14:59:06.257Z,21.05
2022-12-18T15:01:38.458Z,29.80
2022-12-18T15:04:19.723Z,22.13
2022-12-18T15:06:46.922Z,28.35
2022-12-18T15:09:27.340Z,24.17
2022-12-18T15:12:01.531Z,26.52
2022-12-18T15:14:30.870Z,21.95
2022-12-18T15:19:33.948Z,21.83
2022-12-18T15:22:06.130Z,24.20
2022-12-18T15:24:33.645Z,28.58
2022-12-18T15:27:01.333Z,39.78
2022-12-18T15:29:28.500Z,27.77
2022-12-18T15:32:03.993Z,21.05
2022-12-18T15:36:57.468Z,22.08
2022-12-18T15:39:24.316Z,22.10
2022-12-18T15:42:09.481Z,23.20
2022-12-18T15:44:36.192Z,19.40
2022-12-18T15:47:02.896Z,21.77
2022-12-18T15:49:30.887Z,23.13
2022-12-18T15:52:01.119Z,23.70
2022-12-18T15:54:46.436Z,55.03
2022-12-18T15:57:25.707Z,23.70
2022-12-18T15:59:54.254Z,21.20
2022-12-18T16:02:21.948Z,21.75
2022-12-18T16:04:48.887Z,21.38
2022-12-18T16:07:16.231Z,18.52
2022-12-18T16:09:48.151Z,27.17
2022-12-18T16:12:23.218Z,23.13
2022-12-18T16:14:49.887Z,23.55
2022-12-18T16:17:16.680Z,27.58
2022-12-18T16:19:43.549Z,22.15
2022-12-18T16:22:24.654Z,17.50
2022-12-18T16:24:52.681Z,19.77
2022-12-18T16:27:19.892Z,21.98
2022-12-18T16:29:47.138Z,21.42
2022-12-18T16:32:19.760Z,26.63
2022-12-18T16:34:47.025Z,24.17
2022-12-18T16:37:15.165Z,19.90
2022-12-18T16:39:42.576Z,21.77
2022-12-18T16:42:20.151Z,25.05
2022-12-18T16:44:48.406Z,24.15
2022-12-18T16:47:15.611Z,22.08
2022-12-18T16:49:43.289Z,25.63
2022-12-18T16:52:10.111Z,22.30
2022-12-18T16:54:36.992Z,25.60
2022-12-18T16:57:05.583Z,22.15
2022-12-18T16:59:32.654Z,20.23
2022-12-18T17:01:59.441Z,19.38
2022-12-18T17:04:26.287Z,22.10
2022-12-18T17:06:54.017Z,23.20
2022-12-18T17:09:25.416Z,19.48
2022-12-18T17:11:52.785Z,19.42
2022-12-18T17:14:21.500Z,20.23
2022-12-18T17:16:57.848Z,20.05
2022-12-18T17:19:35.238Z,21.98
2022-12-18T17:22:02.035Z,20.98
2022-12-18T17:24:34.386Z,21.85
2022-12-18T17:27:01.659Z,24.92
2022-12-18T17:29:28.321Z,23.65
2022-12-18T17:31:54.994Z,20.13
2022-12-18T17:34:23.410Z,22.98
2022-12-18T17:36:50.112Z,24.17
2022-12-18T17:39:19.331Z,21.58
2022-12-18T17:41:46.205Z,24.42
2022-12-18T17:44:13.307Z,22.45
2022-12-18T17:46:40.187Z,24.77
2022-12-18T17:49:07.002Z,27.20
2022-12-18T17:51:34.080Z,24.13
2022-12-18T17:54:00.881Z,27.08
2022-12-18T17:56:27.624Z,20.55
2022-12-18T17:58:54.323Z,20.02
2022-12-18T18:01:24.321Z,21.90
2022-12-18T18:03:53.642Z,21.63
2022-12-18T18:06:21.148Z,31.67
2022-12-18T18:08:48.293Z,21.80
2022-12-18T18:11:36.704Z,36.30
2022-12-18T18:14:06.247Z,23.02
2022-12-18T18:16:38.010Z,21.42
2022-12-18T18:19:07.264Z,21.65
2022-12-18T18:21:34.728Z,26.80
2022-12-18T18:24:03.219Z,22.10
2022-12-18T18:26:33.781Z,20.15
2022-12-18T18:29:03.000Z,23.80
2022-12-18T18:31:32.734Z,24.45
2022-12-18T18:34:01.990Z,22.10
2022-12-18T18:36:28.911Z,34.90
2022-12-18T18:39:00.492Z,24.65
2022-12-18T18:41:27.450Z,29.55
2022-12-18T18:43:58.530Z,33.40
2022-12-18T18:46:26.099Z,32.72
2022-12-18T18:48:52.955Z,24.20
2022-12-18T18:51:21.069Z,24.95
2022-12-18T18:53:50.158Z,23.20
2022-12-18T18:56:45.375Z,23.35
2022-12-18T18:59:05.993Z,22.08
2022-12-18T19:01:33.229Z,25.73
2022-12-18T19:04:01.132Z,25.45
2022-12-18T19:06:28.491Z,25.23
2022-12-18T19:08:57.038Z,32.47
2022-12-18T19:11:43.772Z,26.10
2022-12-18T19:14:12.719Z,26.27
2022-12-18T19:16:39.611Z,23.42
2022-12-18T19:19:06.393Z,24.88
2022-12-18T19:21:34.295Z,25.20
2022-12-18T19:24:02.654Z,25.02
2022-12-18T19:26:30.260Z,21.20
2022-12-18T19:29:04.640Z,27.17
2022-12-18T19:31:35.576Z,24.20
2022-12-18T19:34:03.924Z,26.48
2022-12-18T19:36:31.606Z,24.75
2022-12-18T19:38:59.892Z,26.42
2022-12-18T19:41:29.051Z,24.85
2022-12-18T19:43:57.334Z,22.58
2022-12-18T19:46:24.181Z,24.45
2022-12-18T19:48:51.688Z,24.17
2022-12-18T19:51:20.881Z,21.33
2022-12-18T19:53:47.962Z,23.48
2022-12-18T19:56:22.375Z,22.75
2022-12-18T19:58:49.325Z,22.85
2022-12-18T20:01:17.686Z,22.38
2022-12-18T20:03:51.635Z,26.05
2022-12-18T20:06:34.270Z,22.17
2022-12-18T20:09:03.891Z,22.70
2022-12-18T20:11:31.492Z,21.90
2022-12-18T20:13:58.334Z,23.48
2022-12-18T20:16:25.078Z,22.05
2022-12-18T20:18:54.981Z,25.52
2022-12-18T20:23:48.556Z,23.60
2022-12-18T20:26:15.269Z,22.83
2022-12-18T20:28:42.537Z,22.35
2022-12-18T20:31:13.486Z,21.13
2022-12-18T20:33:41.315Z,21.45
2022-12-18T20:36:12.995Z,21.65
2022-12-18T20:38:41.061Z,24.20
2022-12-18T20:41:16.423Z,23.15
2022-12-18T20:43:44.319Z,20.23
2022-12-18T20:46:13.089Z,24.25
2022-12-18T20:48:42.010Z,25.23
2022-12-18T20:51:11.286Z,28.08
2022-12-18T20:53:40.135Z,23.83
2022-12-18T20:56:11.542Z,27.73
2022-12-18T20:58:38.432Z,23.20
2022-12-18T21:01:13.369Z,22.88
2022-12-18T21:03:41.559Z,23.08
2022-12-18T21:06:10.400Z,25.83
2022-12-18T21:08:38.069Z,26.85
2022-12-18T21:11:40.308Z,27.40
2022-12-18T21:14:11.486Z,26.98
2022-12-18T21:16:38.446Z,27.67
2022-12-18T21:19:05.154Z,27.60
2022-12-18T21:21:34.767Z,26.85
2022-12-18T21:24:06.522Z,25.98
2022-12-18T21:26:33.704Z,27.27
2022-12-18T21:29:03.357Z,32.35
2022-12-18T21:34:02.013Z,27.63
2022-12-18T21:36:30.347Z,30.45
2022-12-18T21:38:58.412Z,27.77
2022-12-18T21:41:52.114Z,30.23
2022-12-18T21:44:22.120Z,26.67
2022-12-18T21:46:55.660Z,28.35
2022-12-18T21:49:25.021Z,26.65
2022-12-18T21:51:53.835Z,25.50
2022-12-18T21:54:20.934Z,27.90
2022-12-18T21:56:54.983Z,30.13
2022-12-18T21:59:32.127Z,31.38
2022-12-18T22:02:02.050Z,26.98
2022-12-18T22:04:29.879Z,33.63
2022-12-18T22:06:56.668Z,25.88
2022-12-18T22:09:24.223Z,33.88
2022-12-18T22:11:51.926Z,27.25
2022-12-18T22:14:18.610Z,26.20
2022-12-18T22:16:45.511Z,30.98
2022-12-18T22:19:14.195Z,29.92
2022-12-18T22:21:43.936Z,28.77
2022-12-18T22:24:17.300Z,26.15
2022-12-18T22:26:44.234Z,29.80
2022-12-18T22:29:36.832Z,26.65
2022-12-18T22:32:04.895Z,30.35
2022-12-18T22:34:36.444Z,27.83
2022-12-18T22:37:03.375Z,28.05
2022-12-18T22:39:30.732Z,28.35
2022-12-18T22:41:58.253Z,27.35
2022-12-18T22:44:25.082Z,28.75
2022-12-18T22:46:59.673Z,29.40
2022-12-18T22:49:35.000Z,28.73
2022-12-18T22:52:06.190Z,28.02
2022-12-18T22:54:32.857Z,37.83
2022-12-18T22:56:59.589Z,28.27
2022-12-18T22:59:27.037Z,31.30
2022-12-18T23:01:58.930Z,30.92
2022-12-18T23:04:33.557Z,28.95
2022-12-18T23:07:04.787Z,36.33
2022-12-18T23:09:31.749Z,31.33
2022-12-18T23:11:58.462Z,29.40
2022-12-18T23:14:25.185Z,30.83
2022-12-18T23:16:53.060Z,28.00
2022-12-18T23:19:20.261Z,28.88
2022-12-18T23:21:46.997Z,29.30
2022-12-18T23:24:13.836Z,29.83
2022-12-18T23:26:40.671Z,28.67
2022-12-18T23:29:07.778Z,30.58
2022-12-18T23:31:36.867Z,31.88
2022-12-18T23:34:05.166Z,28.30
2022-12-18T23:36:32.296Z,30.23
2022-12-18T23:39:01.328Z,29.42
2022-12-18T23:41:30.380Z,34.28
2022-12-18T23:43:57.807Z,30.17
2022-12-18T23:46:32.616Z,31.83
2022-12-18T23:49:01.390Z,32.45
2022-12-18T23:51:29.093Z,35.67
2022-12-18T23:53:57.548Z,31.55
2022-12-18T23:56:24.946Z,32.22
2022-12-18T23:58:52.116Z,31.48
